Time;durP1;ratioP1;P1;durP2;ratioP2;P2;SDS_P1;SDS_P2;PMS_P1;PMS_P2;Temp;Humidity;BMP_temperature;BMP_pressure;BME280_temperature;BME280_humidity;BME280_pressure;Samples;Min_cycle;Max_cycle;Signal;HPM_P1;HPM_P2
2021/10/18 00:01:54;;;;;;;8.85;7.30;;;12.00;99.90;;;11.63;100.00;101470.06;4118435;28;20371;-68
2021/10/18 00:03:55;;;;;;;9.20;7.72;;;12.00;99.90;;;11.62;100.00;101464.91;4101826;28;20050;-68
2021/10/18 00:05:56;;;;;;;10.57;8.20;;;12.00;99.90;;;11.61;100.00;101471.19;4109800;28;20022;-68
2021/10/18 00:07:57;;;;;;;9.35;7.70;;;12.00;99.90;;;11.58;100.00;101464.41;4118637;28;20034;-68
2021/10/18 00:09:58;;;;;;;9.65;8.13;;;12.00;99.90;;;11.56;100.00;101476.91;4117404;28;20059;-68
2021/10/18 00:11:59;;;;;;;11.93;9.02;;;11.90;99.90;;;11.52;100.00;101469.41;4118785;28;20371;-68
2021/10/18 00:14:00;;;;;;;9.23;7.35;;;11.90;99.90;;;11.53;100.00;101476.34;4118724;28;20023;-68
2021/10/18 00:16:01;;;;;;;9.48;7.72;;;11.90;99.90;;;11.54;100.00;101470.94;4118482;28;20402;-68
2021/10/18 00:18:02;;;;;;;10.00;8.15;;;11.90;99.90;;;11.59;100.00;101471.31;4118321;28;20054;-68
2021/10/18 00:20:10;;;;;;;9.50;7.68;;;12.00;99.90;;;11.60;100.00;101469.53;4117498;28;20031;-68
2021/10/18 00:22:11;;;;;;;12.43;8.70;;;11.90;99.90;;;11.59;100.00;101467.84;4118601;28;20069;-68
2021/10/18 00:24:11;;;;;;;9.77;8.52;;;11.90;99.90;;;11.60;100.00;101459.78;4118558;28;20030;-68
2021/10/18 00:26:13;;;;;;;11.63;9.20;;;11.90;99.90;;;11.57;100.00;101460.06;4118281;28;20031;-68
2021/10/18 00:28:14;;;;;;;10.85;8.07;;;12.00;99.90;;;11.60;100.00;101461.59;4118491;28;20398;-68
2021/10/18 00:30:15;;;;;;;12.68;8.55;;;12.00;99.90;;;11.61;100.00;101456.19;4100988;28;20498;-68
2021/10/18 00:32:16;;;;;;;10.40;8.35;;;12.00;99.90;;;11.60;100.00;101457.16;4118342;28;20035;-68
2021/10/18 00:34:17;;;;;;;11.75;8.57;;;12.00;99.90;;;11.62;100.00;101463.09;4118244;28;20027;-68
2021/10/18 00:36:18;;;;;;;11.35;8.77;;;12.10;99.90;;;11.64;100.00;101457.69;4118430;28;20459;-68
2021/10/18 00:38:19;;;;;;;11.13;8.93;;;12.00;99.90;;;11.60;100.00;101461.59;4117260;28;20104;-68
2021/10/18 00:40:20;;;;;;;10.05;7.97;;;12.10;99.90;;;11.55;100.00;101462.03;4118334;28;20114;-68
2021/10/18 00:42:21;;;;;;;9.35;7.75;;;12.00;99.90;;;11.55;100.00;101461.19;4118200;28;20026;-68
2021/10/18 00:44:23;;;;;;;8.95;7.82;;;12.00;99.90;;;11.51;100.00;101454.53;4117146;28;20045;-68
2021/10/18 00:46:24;;;;;;;10.90;9.00;;;12.00;99.90;;;11.57;100.00;101460.06;4116882;28;20031;-68
2021/10/18 00:48:25;;;;;;;13.73;8.30;;;12.00;99.90;;;11.54;100.00;101457.72;4116882;28;20046;-68
2021/10/18 00:50:26;;;;;;;10.30;8.38;;;12.00;99.90;;;11.53;100.00;101463.13;4118198;28;20027;-68
2021/10/18 00:52:28;;;;;;;11.38;8.93;;;11.90;99.90;;;11.49;100.00;101453.84;4117051;28;20023;-68
2021/10/18 00:54:28;;;;;;;9.68;8.15;;;11.90;99.90;;;11.44;100.00;101464.03;4118225;28;20030;-68
2021/10/18 00:56:30;;;;;;;11.27;9.02;;;11.90;99.90;;;11.37;100.00;101462.94;4118057;28;20023;-68
2021/10/18 00:58:31;;;;;;;10.45;8.50;;;11.90;99.90;;;11.28;100.00;101456.69;4117969;28;20076;-68
2021/10/18 01:00:32;;;;;;;9.98;7.32;;;11.80;99.90;;;11.26;100.00;101458.63;4117600;28;20117;-68
2021/10/18 01:02:34;;;;;;;8.25;7.38;;;11.70;99.90;;;11.30;100.00;101461.81;4118046;28;20425;-68
2021/10/18 01:04:35;;;;;;;10.55;7.57;;;11.70;99.90;;;11.30;100.00;101452.09;4116667;28;20053;-68
2021/10/18 01:06:36;;;;;;;10.65;8.00;;;11.60;99.90;;;11.28;100.00;101461.97;4116728;28;20034;-68
2021/10/18 01:08:38;;;;;;;9.95;7.65;;;11.60;99.90;;;11.24;100.00;101460.59;4116552;28;20125;-68
2021/10/18 01:10:39;;;;;;;10.00;7.97;;;11.60;99.90;;;11.24;100.00;101457.13;4117933;28;20027;-68
2021/10/18 01:12:39;;;;;;;10.00;8.20;;;11.60;99.90;;;11.21;100.00;101462.69;4117861;28;20435;-68
2021/10/18 01:14:41;;;;;;;12.30;8.77;;;11.60;99.90;;;11.20;100.00;101464.47;4117884;28;20024;-68
2021/10/18 01:16:42;;;;;;;12.95;9.10;;;11.60;99.90;;;11.19;100.00;101462.00;4116121;28;20030;-68
2021/10/18 01:18:43;;;;;;;10.05;8.57;;;11.60;99.90;;;11.13;100.00;101458.13;4117842;28;20520;-68
2021/10/18 01:20:44;;;;;;;9.45;8.00;;;11.50;99.90;;;11.10;100.00;101461.88;4117760;28;20039;-68
2021/10/18 01:22:44;;;;;;;11.25;8.20;;;11.50;99.90;;;11.09;100.00;101454.94;4116564;28;20035;-68
2021/10/18 01:24:45;;;;;;;8.80;7.90;;;11.50;99.90;;;11.11;100.00;101463.53;4117661;28;20030;-68
2021/10/18 01:26:46;;;;;;;12.93;8.07;;;11.50;99.90;;;11.10;100.00;101448.69;4117782;28;20387;-68
2021/10/18 01:28:47;;;;;;;10.65;8.38;;;11.40;99.90;;;11.15;100.00;101457.97;4117625;28;20042;-68
2021/10/18 01:30:48;;;;;;;11.65;9.32;;;11.40;99.90;;;11.11;100.00;101454.78;4117400;28;20160;-68
2021/10/18 01:32:50;;;;;;;10.82;8.90;;;11.50;99.90;;;11.09;100.00;101452.28;4100363;29;20023;-68
2021/10/18 01:34:51;;;;;;;9.43;7.85;;;11.40;99.90;;;11.05;100.00;101458.81;4132604;28;20057;-68
2021/10/18 01:36:52;;;;;;;9.38;7.72;;;11.40;99.90;;;11.06;100.00;101449.94;4109404;28;20560;-68
2021/10/18 01:38:53;;;;;;;10.45;7.85;;;11.40;99.90;;;11.04;100.00;101454.53;4116405;28;20054;-68
2021/10/18 01:40:53;;;;;;;12.80;9.23;;;11.40;99.90;;;11.06;100.00;101452.56;4116365;28;20396;-68
2021/10/18 01:42:55;;;;;;;9.88;8.45;;;11.40;99.90;;;11.06;100.00;101454.38;4100342;28;20028;-68
2021/10/18 01:44:56;;;;;;;12.65;9.55;;;11.40;99.90;;;11.03;100.00;101455.50;4117592;28;20019;-68
2021/10/18 01:46:57;;;;;;;11.40;8.73;;;11.40;99.90;;;10.97;100.00;101449.94;4115975;28;20031;-68
2021/10/18 01:48:58;;;;;;;13.23;8.88;;;11.40;99.90;;;10.94;100.00;101451.06;4116138;28;20037;-68
2021/10/18 01:50:59;;;;;;;10.25;8.98;;;11.30;99.90;;;10.93;100.00;101453.84;4117592;28;20027;-68
2021/10/18 01:53:00;;;;;;;12.45;9.05;;;11.30;99.90;;;10.95;100.00;101458.00;4117600;28;20027;-68
2021/10/18 01:55:01;;;;;;;9.40;8.10;;;11.30;99.90;;;10.93;100.00;101457.31;4117548;28;20026;-68
2021/10/18 01:57:02;;;;;;;13.02;9.05;;;11.30;99.90;;;10.92;100.00;101447.75;4116112;28;20085;-68
2021/10/18 01:59:04;;;;;;;10.32;8.50;;;11.30;99.90;;;10.97;100.00;101449.94;4117399;28;20034;-68
2021/10/18 02:01:05;;;;;;;11.25;8.95;;;11.30;99.90;;;10.86;100.00;101453.56;4117076;28;20070;-68
2021/10/18 02:03:06;;;;;;;10.55;8.88;;;11.30;99.90;;;10.82;100.00;101462.75;4117490;28;20454;-68
2021/10/18 02:05:07;;;;;;;10.50;7.93;;;11.30;99.90;;;10.76;100.00;101454.53;4117239;28;20023;-68
2021/10/18 02:07:08;;;;;;;11.40;7.95;;;11.20;99.90;;;10.74;100.00;101443.31;4117256;28;20026;-68
2021/10/18 02:09:09;;;;;;;9.70;8.70;;;11.20;99.90;;;10.78;100.00;101461.34;4117262;28;20062;-68
2021/10/18 02:11:12;;;;;;;10.90;8.68;;;11.10;99.90;;;10.75;100.00;101456.34;4116107;28;20055;-68
2021/10/18 02:13:13;;;;;;;10.20;8.15;;;11.20;99.90;;;10.72;100.00;101461.91;4115978;28;20066;-68
2021/10/18 02:15:14;;;;;;;13.00;8.55;;;11.10;99.90;;;10.71;100.00;101454.97;4115804;28;20034;-68
2021/10/18 02:17:15;;;;;;;12.18;8.50;;;11.10;99.90;;;10.73;100.00;101450.38;4116932;28;20055;-69
2021/10/18 02:19:16;;;;;;;12.32;8.75;;;11.10;99.90;;;10.69;100.00;101442.91;4118806;28;20031;-68
2021/10/18 02:21:17;;;;;;;10.80;8.35;;;11.10;99.90;;;10.69;100.00;101446.38;4118722;28;20039;-68
2021/10/18 02:23:18;;;;;;;11.55;8.90;;;11.10;99.90;;;10.67;100.00;101439.53;4118769;28;20521;-68
2021/10/18 02:25:19;;;;;;;11.68;8.48;;;11.10;99.90;;;10.64;100.00;101447.75;4120021;28;20053;-68
2021/10/18 02:27:20;;;;;;;11.38;8.57;;;11.10;99.90;;;10.62;100.00;101439.97;4120001;28;20504;-68
2021/10/18 02:29:21;;;;;;;9.90;7.65;;;11.10;99.90;;;10.72;100.00;101445.25;4119884;28;20026;-68
2021/10/18 02:31:22;;;;;;;8.88;7.97;;;11.10;99.90;;;10.69;100.00;101427.06;4118489;28;20034;-68
2021/10/18 02:33:23;;;;;;;11.18;8.32;;;11.10;99.90;;;10.65;100.00;101444.97;4119989;28;20065;-68
2021/10/18 02:35:24;;;;;;;10.05;8.32;;;11.10;99.90;;;10.62;100.00;101453.16;4118712;28;20084;-68
2021/10/18 02:37:25;;;;;;;10.18;8.35;;;11.10;99.90;;;10.62;100.00;101450.53;4118768;28;20038;-68
2021/10/18 02:39:26;;;;;;;11.35;8.32;;;11.10;99.90;;;10.57;100.00;101447.50;4119775;28;20058;-68
2021/10/18 02:41:27;;;;;;;11.75;8.75;;;11.00;99.90;;;10.74;100.00;101454.69;4119878;28;20035;-68
2021/10/18 02:43:27;;;;;;;10.15;8.65;;;11.10;99.90;;;10.69;100.00;101450.81;4119761;28;20102;-68
2021/10/18 02:45:28;;;;;;;12.55;10.02;;;11.10;99.90;;;10.75;100.00;101461.63;4119525;28;20034;-68
2021/10/18 02:47:29;;;;;;;13.65;9.88;;;11.10;99.90;;;10.74;100.00;101462.63;4119574;28;20062;-68
2021/10/18 02:49:30;;;;;;;14.73;10.75;;;11.10;99.90;;;10.84;100.00;101446.78;4118400;28;20484;-69
2021/10/18 02:51:31;;;;;;;11.65;9.07;;;11.20;99.90;;;10.86;100.00;101436.91;4102552;28;20123;-68
2021/10/18 02:53:32;;;;;;;14.43;10.48;;;11.20;99.90;;;10.90;100.00;101439.09;4118639;28;20027;-68
2021/10/18 02:55:33;;;;;;;14.45;11.35;;;11.30;99.90;;;10.86;100.00;101440.38;4100510;29;20027;-68
2021/10/18 02:57:34;;;;;;;13.18;9.75;;;11.30;99.90;;;10.83;100.00;101438.03;4118507;28;20410;-68
2021/10/18 02:59:35;;;;;;;11.68;10.05;;;11.30;99.90;;;10.85;100.00;101451.06;4118383;28;20027;-68
2021/10/18 03:01:36;;;;;;;14.27;9.25;;;11.30;99.90;;;10.81;100.00;101453.16;4118182;28;20046;-68
2021/10/18 03:03:37;;;;;;;10.23;8.60;;;11.30;99.90;;;10.80;100.00;101438.31;4119429;28;20109;-68
2021/10/18 03:05:38;;;;;;;11.60;9.00;;;11.30;99.90;;;10.78;100.00;101448.16;4119712;28;20035;-68
2021/10/18 03:07:39;;;;;;;10.90;8.82;;;11.30;99.90;;;10.74;100.00;101452.06;4118363;28;20031;-68
2021/10/18 03:09:40;;;;;;;14.93;10.32;;;11.30;99.90;;;10.67;100.00;101453.56;4118396;28;20087;-68
2021/10/18 03:11:41;;;;;;;9.88;8.57;;;11.20;99.90;;;10.70;100.00;101455.09;4119494;28;20023;-68
2021/10/18 03:13:42;;;;;;;10.75;7.95;;;11.20;99.90;;;10.78;100.00;101460.53;4118450;28;20062;-68
2021/10/18 03:15:44;;;;;;;11.52;9.50;;;11.20;99.90;;;10.82;100.00;101461.91;4118011;28;20132;-68
2021/10/18 03:17:45;;;;;;;9.75;7.97;;;11.20;99.90;;;10.82;100.00;101454.81;4118203;28;20062;-68
2021/10/18 03:19:46;;;;;;;9.95;7.78;;;11.20;99.90;;;10.80;100.00;101455.94;4118212;28;20031;-68
2021/10/18 03:21:48;;;;;;;11.95;7.70;;;11.20;99.90;;;10.80;100.00;101461.22;4102260;29;20081;-68
2021/10/18 03:23:49;;;;;;;10.00;8.23;;;11.20;99.90;;;10.77;100.00;101461.50;4118317;28;20034;-68
2021/10/18 03:25:50;;;;;;;10.73;8.35;;;11.20;99.90;;;10.78;100.00;101463.97;4118136;28;20030;-68
2021/10/18 03:27:51;;;;;;;11.98;7.85;;;11.20;99.90;;;10.84;100.00;101465.25;4117453;28;20054;-68
2021/10/18 03:29:51;;;;;;;11.57;9.05;;;11.20;99.90;;;10.81;100.00;101463.69;4117428;28;20088;-68
2021/10/18 03:31:52;;;;;;;9.20;7.22;;;11.30;99.90;;;10.88;100.00;101456.06;4119166;28;20031;-68
2021/10/18 03:33:53;;;;;;;9.98;8.00;;;11.30;99.90;;;10.91;100.00;101450.50;4118086;28;20027;-68
2021/10/18 03:35:54;;;;;;;8.93;7.72;;;11.30;99.90;;;10.86;100.00;101453.56;4119144;28;20027;-68
2021/10/18 03:37:55;;;;;;;11.05;8.55;;;11.40;99.90;;;10.87;100.00;101454.41;4119326;28;20395;-68
2021/10/18 03:39:57;;;;;;;11.65;8.95;;;11.40;99.90;;;10.96;100.00;101457.03;4119403;28;20065;-68
2021/10/18 03:41:58;;;;;;;11.15;8.27;;;11.40;99.90;;;10.97;100.00;101456.06;4117936;28;20038;-68
2021/10/18 03:44:01;;;;;;;9.93;8.52;;;11.50;99.90;;;11.03;100.00;101452.84;4118060;28;20100;-68
2021/10/18 03:46:02;;;;;;;9.63;7.35;;;11.50;99.90;;;11.06;100.00;101451.72;4117855;28;20034;-68
2021/10/18 03:48:03;;;;;;;9.93;8.00;;;11.50;99.90;;;11.06;100.00;101447.28;4119071;28;20153;-68
2021/10/18 03:50:06;;;;;;;8.05;7.25;;;11.60;99.90;;;11.05;100.00;101437.69;4117690;28;20114;-68
2021/10/18 03:52:07;;;;;;;10.15;7.55;;;11.60;99.90;;;11.17;100.00;101442.84;4119080;28;20019;-68
2021/10/18 03:54:08;;;;;;;9.73;7.18;;;11.70;99.90;;;11.25;100.00;101445.59;4117807;28;20031;-68
2021/10/18 03:56:09;;;;;;;12.57;8.57;;;11.80;99.90;;;11.28;100.00;101453.22;4119083;28;20073;-68
2021/10/18 03:58:10;;;;;;;8.60;7.22;;;11.80;99.90;;;11.29;100.00;101453.06;4118961;28;20035;-68
2021/10/18 04:00:11;;;;;;;8.27;6.80;;;11.80;99.90;;;11.32;100.00;101447.50;4118711;28;20039;-68
2021/10/18 04:02:14;;;;;;;11.15;8.82;;;11.80;99.90;;;11.38;100.00;101444.28;4106118;28;20030;-68
2021/10/18 04:04:15;;;;;;;10.18;8.20;;;11.90;99.90;;;11.43;100.00;101454.44;4118975;28;20023;-68
2021/10/18 04:06:16;;;;;;;15.80;12.95;;;11.90;99.90;;;11.50;100.00;101458.13;4117713;28;20122;-68
2021/10/18 04:08:17;;;;;;;18.33;14.20;;;12.00;99.90;;;11.69;100.00;101455.44;4117599;28;20059;-68
2021/10/18 04:10:18;;;;;;;18.13;15.15;;;12.10;99.90;;;11.84;100.00;101461.94;4118917;28;20034;-68
2021/10/18 04:12:19;;;;;;;17.25;14.27;;;12.20;99.90;;;11.85;100.00;101465.41;4118889;28;20023;-68
2021/10/18 04:14:20;;;;;;;20.42;15.65;;;12.30;99.90;;;11.96;100.00;101462.56;4118827;28;20104;-68
2021/10/18 04:16:21;;;;;;;16.63;12.55;;;12.40;99.90;;;11.86;100.00;101452.03;4118559;28;20026;-68
2021/10/18 04:18:22;;;;;;;17.83;15.10;;;12.40;99.90;;;11.89;100.00;101459.69;4118485;28;20125;-68
2021/10/18 04:20:23;;;;;;;20.27;15.82;;;12.40;99.90;;;12.00;100.00;101456.84;4118784;28;20038;-68
2021/10/18 04:22:24;;;;;;;16.65;14.85;;;12.50;99.90;;;12.09;100.00;101455.97;4117544;28;20058;-68
2021/10/18 04:24:24;;;;;;;21.27;16.95;;;12.50;99.90;;;12.13;100.00;101461.78;4101427;28;20494;-68
2021/10/18 04:26:26;;;;;;;21.02;16.42;;;12.60;99.90;;;12.17;100.00;101458.69;4101383;28;20031;-68
2021/10/18 04:28:27;;;;;;;21.77;16.60;;;12.70;99.90;;;12.14;100.00;101464.28;4090981;29;20035;-68
2021/10/18 04:30:28;;;;;;;19.52;16.08;;;12.70;99.90;;;12.11;100.00;101466.38;4111265;28;20037;-68
2021/10/18 04:32:29;;;;;;;21.75;16.33;;;12.60;99.90;;;12.09;100.00;101463.91;4118566;28;20034;-68
2021/10/18 04:34:30;;;;;;;27.50;18.30;;;12.70;99.90;;;12.24;100.00;101464.22;4118405;28;20031;-68
2021/10/18 04:36:31;;;;;;;26.50;17.40;;;12.70;99.90;;;12.19;100.00;101472.59;4117466;28;20042;-68
2021/10/18 04:38:32;;;;;;;24.88;18.15;;;12.80;99.90;;;12.40;100.00;101477.63;4117510;28;20042;-68
2021/10/18 04:40:33;;;;;;;23.95;17.90;;;12.80;99.90;;;12.33;100.00;101478.38;4116868;28;20030;-68
2021/10/18 04:42:34;;;;;;;20.73;16.50;;;12.80;99.90;;;12.31;100.00;101475.03;4116980;28;20034;-68
2021/10/18 04:44:36;;;;;;;30.35;17.25;;;12.80;99.90;;;12.37;100.00;101477.06;4101199;29;20035;-68
2021/10/18 04:46:37;;;;;;;26.63;17.60;;;12.80;99.90;;;12.35;100.00;101476.41;4110097;28;20035;-68
2021/10/18 04:48:40;;;;;;;30.55;18.80;;;12.80;99.90;;;12.33;100.00;101467.78;4118196;28;20080;-68
2021/10/18 04:50:41;;;;;;;27.20;17.20;;;12.90;99.90;;;12.37;100.00;101469.97;4118246;28;20033;-68
2021/10/18 04:52:42;;;;;;;28.52;16.52;;;12.90;99.90;;;12.36;100.00;101464.84;4117203;28;20019;-68
2021/10/18 04:54:43;;;;;;;28.00;17.30;;;12.90;99.90;;;12.36;100.00;101468.34;4117004;28;20046;-68
2021/10/18 04:56:43;;;;;;;22.95;17.00;;;12.90;99.90;;;12.35;100.00;101461.38;4117045;28;20078;-68
2021/10/18 04:58:44;;;;;;;25.08;17.45;;;12.90;99.90;;;12.31;100.00;101464.44;4116914;28;20035;-68
2021/10/18 05:00:49;;;;;;;19.90;16.13;;;12.90;99.90;;;12.39;100.00;101467.19;4117983;28;20490;-68
2021/10/18 05:02:50;;;;;;;22.55;17.45;;;12.90;99.90;;;12.38;100.00;101469.00;4118180;28;20045;-68
2021/10/18 05:04:51;;;;;;;21.10;17.17;;;12.90;99.90;;;12.49;100.00;101473.22;4118253;28;20035;-68
2021/10/18 05:06:52;;;;;;;20.92;15.70;;;13.00;99.90;;;12.50;100.00;101466.97;4116870;28;20057;-68
2021/10/18 05:08:54;;;;;;;20.60;16.98;;;13.00;99.90;;;12.48;100.00;101471.59;4116957;28;20034;-68
2021/10/18 05:10:56;;;;;;;21.40;16.80;;;13.00;99.90;;;12.55;100.00;101472.63;4118277;28;20023;-68
2021/10/18 05:12:57;;;;;;;22.80;17.10;;;13.10;99.90;;;12.54;100.00;101476.28;4117054;28;20483;-68
2021/10/18 05:14:58;;;;;;;19.92;16.52;;;13.00;99.90;;;12.57;100.00;101475.97;4116548;28;20026;-68
2021/10/18 05:16:59;;;;;;;19.65;16.42;;;13.10;99.90;;;12.61;100.00;101469.38;4117911;28;20023;-69
2021/10/18 05:19:00;;;;;;;19.17;15.35;;;13.10;99.90;;;12.56;100.00;101466.34;4117134;28;20088;-68
2021/10/18 05:21:05;;;;;;;21.90;17.92;;;13.10;99.90;;;12.67;100.00;101471.41;4116696;28;20114;-68
2021/10/18 05:23:06;;;;;;;23.98;17.58;;;13.10;99.90;;;12.73;100.00;101466.34;4118135;28;20077;-68
2021/10/18 05:25:08;;;;;;;24.83;18.23;;;13.20;99.90;;;12.81;100.00;101467.41;4117942;28;20432;-68
2021/10/18 05:27:10;;;;;;;22.27;19.15;;;13.20;99.90;;;12.87;100.00;101465.00;4100896;28;20058;-68
2021/10/18 05:29:11;;;;;;;19.42;16.90;;;13.30;99.90;;;12.74;100.00;101461.91;4112423;28;20019;-68
2021/10/18 05:31:12;;;;;;;21.13;18.83;;;13.20;99.90;;;12.76;100.00;101470.50;4117106;28;20069;-68
2021/10/18 05:33:13;;;;;;;22.83;16.75;;;13.20;99.90;;;12.78;100.00;101473.84;4117816;28;20034;-68
2021/10/18 05:35:14;;;;;;;22.80;18.80;;;13.30;99.90;;;12.74;100.00;101477.78;4117756;28;20482;-68
2021/10/18 05:37:15;;;;;;;28.08;19.10;;;13.30;99.90;;;12.70;100.00;101471.94;4117647;28;20027;-68
2021/10/18 05:39:16;;;;;;;23.15;18.52;;;13.30;99.90;;;12.76;100.00;101468.69;4116415;28;20026;-68
2021/10/18 05:41:17;;;;;;;25.85;20.83;;;13.30;99.90;;;12.84;100.00;101470.59;4100602;28;20051;-68
2021/10/18 05:43:18;;;;;;;36.28;25.52;;;13.30;99.90;;;12.86;100.00;101471.28;4116346;28;20110;-68
2021/10/18 05:45:20;;;;;;;38.80;27.30;;;13.40;99.90;;;12.80;100.00;101476.34;4117358;28;20076;-68
2021/10/18 05:47:21;;;;;;;43.00;28.67;;;13.40;99.90;;;12.84;100.00;101475.91;4116230;28;20035;-68
2021/10/18 05:49:22;;;;;;;41.92;28.27;;;13.40;99.90;;;12.83;100.00;101471.56;4116319;28;20038;-68
2021/10/18 05:51:25;;;;;;;40.95;27.90;;;13.40;99.90;;;12.93;100.00;101476.78;4116649;28;20053;-68
2021/10/18 05:53:26;;;;;;;47.83;29.02;;;13.40;99.90;;;12.89;100.00;101464.84;4117505;28;20023;-68
2021/10/18 05:55:27;;;;;;;39.03;26.35;;;13.40;99.90;;;12.84;100.00;101475.91;4117442;28;20058;-68
2021/10/18 05:57:28;;;;;;;34.95;24.27;;;13.40;99.90;;;12.81;100.00;101467.41;4116399;28;20546;-68
2021/10/18 05:59:29;;;;;;;36.28;24.17;;;13.30;99.90;;;12.86;100.00;101471.28;4117471;28;20056;-68
2021/10/18 06:01:30;;;;;;;35.22;25.27;;;13.40;99.90;;;12.95;100.00;101470.34;4116939;28;20054;-68
2021/10/18 06:03:31;;;;;;;34.65;25.65;;;13.40;99.90;;;12.87;100.00;101462.34;4115965;28;20057;-68
2021/10/18 06:05:42;;;;;;;44.38;27.48;;;13.40;99.90;;;12.85;100.00;101464.31;4116209;28;20088;-68
2021/10/18 06:07:43;;;;;;;37.90;26.40;;;13.40;99.90;;;12.87;100.00;101465.00;4116181;28;20045;-68
2021/10/18 06:09:44;;;;;;;44.03;27.38;;;13.40;99.90;;;12.87;100.00;101462.34;4117307;28;20030;-69
2021/10/18 06:11:45;;;;;;;42.60;28.30;;;13.40;99.90;;;13.01;100.00;101467.09;4117192;28;20049;-69
2021/10/18 06:13:46;;;;;;;42.50;28.80;;;13.50;99.90;;;13.24;100.00;101475.38;4117318;28;20109;-68
2021/10/18 06:15:47;;;;;;;45.10;30.15;;;13.50;99.90;;;13.16;100.00;101478.00;4116971;28;20031;-68
2021/10/18 06:17:48;;;;;;;38.10;28.08;;;13.60;99.90;;;13.10;100.00;101475.94;4115917;28;20050;-68
2021/10/18 06:19:48;;;;;;;39.47;27.20;;;13.60;99.90;;;13.17;100.00;101474.38;4115864;28;20035;-68
2021/10/18 06:21:49;;;;;;;41.70;25.92;;;13.60;99.90;;;13.12;100.00;101469.50;4117226;28;20489;-68
2021/10/18 06:23:50;;;;;;;36.92;25.55;;;13.60;99.90;;;13.33;100.00;101485.06;4117116;28;20027;-68
2021/10/18 06:25:52;;;;;;;36.80;25.58;;;13.70;99.90;;;13.28;100.00;101474.94;4115881;28;20027;-68
2021/10/18 06:27:52;;;;;;;34.15;24.23;;;13.80;99.90;;;13.33;100.00;101469.16;4115300;28;20080;-68
2021/10/18 06:29:53;;;;;;;35.65;25.05;;;13.80;99.90;;;13.32;100.00;101468.31;4115709;28;20022;-68
2021/10/18 06:31:54;;;;;;;31.05;22.45;;;13.80;99.90;;;13.28;100.00;101467.00;4099535;28;20035;-68
2021/10/18 06:33:55;;;;;;;36.63;23.55;;;13.80;99.90;;;13.38;100.00;101474.00;4131382;28;20052;-68
2021/10/18 06:35:56;;;;;;;36.95;23.02;;;13.80;99.90;;;13.43;100.00;101474.34;4116932;28;20031;-68
2021/10/18 06:37:57;;;;;;;34.72;21.50;;;13.90;99.90;;;13.38;100.00;101468.69;4117190;28;20443;-68
2021/10/18 06:39:58;;;;;;;32.80;20.27;;;13.90;99.90;;;13.45;100.00;101482.97;4117323;28;20409;-68
2021/10/18 06:41:59;;;;;;;30.17;20.35;;;14.00;99.90;;;13.47;100.00;101481.81;4116905;28;20027;-68
2021/10/18 06:44:00;;;;;;;28.95;21.52;;;13.90;99.90;;;13.60;100.00;101478.75;4116986;28;20031;-68
2021/10/18 06:46:01;;;;;;;27.23;19.38;;;14.00;99.90;;;13.58;100.00;101472.78;4116942;28;20034;-68
2021/10/18 06:48:02;;;;;;;27.35;19.10;;;14.00;99.90;;;13.51;100.00;101474.41;4116869;28;20124;-68
2021/10/18 06:50:05;;;;;;;27.80;19.52;;;14.00;99.90;;;13.69;100.00;101476.00;4115443;28;20063;-68
2021/10/18 06:52:06;;;;;;;31.73;21.17;;;14.10;99.90;;;13.67;100.00;101467.38;4116697;28;20034;-68
2021/10/18 06:54:08;;;;;;;31.08;19.75;;;14.10;99.90;;;13.63;100.00;101466.03;4116764;28;20038;-68
2021/10/18 06:56:09;;;;;;;26.33;18.30;;;14.10;99.90;;;13.55;100.00;101465.97;4116637;28;20137;-68
2021/10/18 06:58:10;;;;;;;38.00;21.35;;;14.10;99.90;;;13.54;100.00;101464.31;4116667;28;20027;-68
2021/10/18 07:00:12;;;;;;;24.33;18.48;;;14.20;99.90;;;13.66;100.00;101464.88;4116144;28;20173;-68
2021/10/18 07:02:13;;;;;;;24.80;17.10;;;14.20;99.90;;;13.61;100.00;101464.53;4115449;28;20061;-68
2021/10/18 07:04:18;;;;;;;27.75;19.00;;;14.20;99.90;;;13.71;100.00;101473.16;4119349;28;20077;-68
2021/10/18 07:06:19;;;;;;;24.08;18.50;;;14.20;99.90;;;13.75;100.00;101471.88;4119738;28;20389;-69
2021/10/18 07:08:20;;;;;;;31.83;20.30;;;14.30;99.90;;;13.75;100.00;101466.56;4119317;28;20062;-70
2021/10/18 07:10:21;;;;;;;40.97;20.95;;;14.30;99.90;;;13.64;100.00;101480.09;4102453;29;20020;-69
2021/10/18 07:12:22;;;;;;;28.25;20.17;;;14.30;99.90;;;13.61;100.00;101478.59;4109401;28;20108;-69
2021/10/18 07:14:24;;;;;;;54.28;22.75;;;14.30;99.90;;;13.57;100.00;101492.31;4119497;28;20027;-69
2021/10/18 07:16:25;;;;;;;26.95;18.40;;;14.20;99.90;;;13.58;100.00;101496.66;4119079;28;20027;-69
2021/10/18 07:18:27;;;;;;;34.97;21.30;;;14.20;99.90;;;13.62;100.00;101505.97;4119327;28;20575;-69
2021/10/18 07:20:28;;;;;;;31.10;19.30;;;14.30;99.90;;;13.66;100.00;101496.69;4119413;28;20122;-69
2021/10/18 07:22:41;;;;;;;39.55;20.17;;;14.30;99.90;;;13.64;100.00;101490.72;4119485;28;20109;-69
2021/10/18 07:24:42;;;;;;;30.67;19.95;;;14.30;99.90;;;13.71;100.00;101492.56;4118308;28;20060;-69
2021/10/18 07:26:44;;;;;;;32.03;20.55;;;14.30;99.90;;;13.71;100.00;101489.91;4118246;28;20069;-69
2021/10/18 07:28:45;;;;;;;36.42;21.02;;;14.40;99.90;;;13.74;100.00;101489.59;4119203;28;20034;-69
2021/10/18 07:30:46;;;;;;;34.08;20.55;;;14.40;99.90;;;13.77;100.00;101483.13;4119051;28;20027;-69
2021/10/18 07:32:48;;;;;;;34.95;20.08;;;14.40;99.90;;;13.79;100.00;101489.13;4119129;28;20029;-69
2021/10/18 07:34:49;;;;;;;30.27;18.92;;;14.40;99.90;;;13.93;100.00;101482.38;4102154;29;20027;-69
2021/10/18 07:36:50;;;;;;;30.23;19.75;;;14.50;99.90;;;13.87;100.00;101481.22;4111698;28;20124;-69
2021/10/18 07:38:51;;;;;;;36.08;21.45;;;14.50;99.90;;;13.90;100.00;101503.94;4119150;28;20023;-69
2021/10/18 07:40:52;;;;;;;31.83;20.45;;;14.60;99.90;;;13.92;100.00;101499.31;4117764;28;20034;-69
2021/10/18 07:42:54;;;;;;;30.58;20.23;;;14.60;99.90;;;13.97;100.00;101505.81;4119299;28;20039;-69
2021/10/18 07:44:55;;;;;;;45.80;23.67;;;14.60;99.90;;;13.94;100.00;101506.13;4117888;28;20042;-69
2021/10/18 07:46:59;;;;;;;26.55;18.58;;;14.60;99.90;;;13.95;100.00;101505.09;4119063;28;20035;-69
2021/10/18 07:49:00;;;;;;;31.15;20.27;;;14.60;99.90;;;13.95;100.00;101515.72;4101738;28;20468;-69
2021/10/18 07:51:02;;;;;;;30.48;19.85;;;14.60;99.90;;;14.01;100.00;101517.72;4106214;28;20034;-69
2021/10/18 07:53:03;;;;;;;33.65;20.90;;;14.60;99.90;;;14.09;100.00;101520.44;4117716;28;20453;-69
2021/10/18 07:55:12;;;;;;;40.03;23.10;;;14.70;99.90;;;14.12;100.00;101517.47;4118985;28;20096;-69
2021/10/18 07:57:14;;;;;;;33.33;20.33;;;14.70;99.90;;;14.12;100.00;101513.97;4118664;28;20110;-69
2021/10/18 07:59:15;;;;;;;41.78;22.42;;;14.80;99.90;;;14.24;100.00;101523.31;4118872;28;20034;-70
2021/10/18 08:01:16;;;;;;;51.97;25.25;;;14.80;99.90;;;14.22;100.00;101520.81;4117294;28;20035;-69
2021/10/18 08:03:17;;;;;;;28.77;20.30;;;14.90;99.90;;;14.28;100.00;101519.31;4117640;28;20030;-70
2021/10/18 08:05:18;;;;;;;35.40;21.55;;;14.90;99.90;;;14.39;100.00;101527.84;4117418;28;20060;-70
2021/10/18 08:07:25;;;;;;;30.02;20.67;;;14.90;99.90;;;14.45;100.00;101518.44;4118556;28;20058;-69
2021/10/18 08:09:27;;;;;;;36.35;21.38;;;15.00;99.90;;;14.49;100.00;101519.75;4118799;28;20026;-69
2021/10/18 08:11:28;;;;;;;29.65;19.27;;;15.10;99.90;;;14.44;100.00;101518.59;4118737;28;20054;-69
2021/10/18 08:13:28;;;;;;;30.50;21.05;;;15.10;99.90;;;14.57;100.00;101518.97;4117419;28;20065;-69